Time;durP1;ratioP1;P1;durP2;ratioP2;P2;SDS_P1;SDS_P2;PMS_P1;PMS_P2;Temp;Humidity;BMP_temperature;BMP_pressure;BME280_temperature;BME280_humidity;BME280_pressure;Samples;Min_cycle;Max_cycle;Signal;HPM_P1;HPM_P2
2022/01/31 00:00:10;;;;;;;21.98;6.25;;;3.80;79.80;;;;;;5052885;28;20136;-77
2022/01/31 00:02:41;;;;;;;17.85;5.30;;;3.80;80.40;;;;;;5046557;28;20136;-78
2022/01/31 00:05:09;;;;;;;26.80;6.55;;;3.80;80.80;;;;;;5047421;28;20056;-77
2022/01/31 00:07:36;;;;;;;19.83;5.50;;;3.80;80.80;;;;;;5041481;28;20827;-77
2022/01/31 00:10:11;;;;;;;25.33;5.57;;;3.80;81.70;;;;;;5047944;28;20076;-77
2022/01/31 00:15:12;;;;;;;21.60;5.38;;;3.80;82.10;;;;;;5049934;28;20088;-77
2022/01/31 00:17:40;;;;;;;25.20;6.03;;;3.90;82.30;;;;;;5051789;28;20431;-77
2022/01/31 00:20:10;;;;;;;18.90;6.07;;;3.80;82.60;;;;;;5051668;28;20050;-78
2022/01/31 00:22:38;;;;;;;20.95;5.15;;;3.90;82.90;;;;;;5051734;28;20140;-78
2022/01/31 00:25:05;;;;;;;20.02;5.32;;;3.90;83.00;;;;;;5046343;28;20590;-78
2022/01/31 00:27:32;;;;;;;20.10;5.45;;;3.90;83.50;;;;;;5050945;28;20053;-77
2022/01/31 00:29:58;;;;;;;25.80;5.28;;;4.00;83.20;;;;;;5050805;28;20132;-78
2022/01/31 00:32:29;;;;;;;21.40;5.30;;;4.00;83.80;;;;;;5050385;28;20483;-78
2022/01/31 00:34:57;;;;;;;26.10;5.70;;;4.00;84.60;;;;;;5050722;28;20046;-78
2022/01/31 00:37:24;;;;;;;29.85;6.43;;;4.00;85.60;;;;;;5066266;28;20140;-77
2022/01/31 00:39:52;;;;;;;24.42;5.90;;;4.00;86.60;;;;;;5050781;28;20049;-77
2022/01/31 00:42:23;;;;;;;25.88;5.75;;;4.00;86.10;;;;;;5044460;28;20045;-77
2022/01/31 00:44:54;;;;;;;26.90;5.80;;;3.90;87.70;;;;;;5048533;28;20132;-77
2022/01/31 00:47:24;;;;;;;28.75;6.88;;;3.90;87.90;;;;;;5050285;28;20950;-78
2022/01/31 00:50:09;;;;;;;34.08;6.35;;;3.90;88.40;;;;;;5044710;28;20056;-77
2022/01/31 00:52:42;;;;;;;36.38;6.40;;;3.90;89.00;;;;;;5037576;28;20050;-77
2022/01/31 00:55:10;;;;;;;32.45;6.70;;;3.80;89.60;;;;;;5050502;28;20140;-78
2022/01/31 00:57:40;;;;;;;35.85;6.85;;;3.80;89.70;;;;;;5043382;28;20069;-76
2022/01/31 01:00:09;;;;;;;31.17;7.55;;;3.80;90.20;;;;;;5042084;28;20942;-76
2022/01/31 01:02:36;;;;;;;29.48;7.20;;;3.80;90.70;;;;;;5045643;28;20054;-78
2022/01/31 01:05:05;;;;;;;28.23;7.72;;;3.70;90.90;;;;;;5031680;28;20058;-79
2022/01/31 01:07:34;;;;;;;25.58;7.38;;;3.70;91.80;;;;;;5044138;28;20057;-79
2022/01/31 01:10:02;;;;;;;38.15;9.80;;;3.60;92.00;;;;;;5049127;28;20060;-79
2022/01/31 01:12:29;;;;;;;29.30;8.88;;;3.60;92.20;;;;;;5049091;28;20870;-78
2022/01/31 01:14:57;;;;;;;35.97;8.73;;;3.60;92.70;;;;;;5046833;28;20162;-79
2022/01/31 01:17:24;;;;;;;28.92;8.07;;;3.60;93.00;;;;;;5049538;28;20912;-79
2022/01/31 01:19:51;;;;;;;31.88;9.77;;;3.60;93.10;;;;;;5047801;28;20105;-80
2022/01/31 01:22:19;;;;;;;35.80;10.75;;;3.60;93.50;;;;;;5056167;28;20105;-78
2022/01/31 01:24:48;;;;;;;35.72;10.63;;;3.60;93.90;;;;;;5054012;28;20042;-80
2022/01/31 01:27:18;;;;;;;33.25;10.02;;;3.60;93.80;;;;;;5053532;28;20042;-78
2022/01/31 01:29:46;;;;;;;26.65;9.95;;;3.60;94.20;;;;;;5048193;28;20057;-79
2022/01/31 01:32:14;;;;;;;36.03;10.32;;;3.70;94.10;;;;;;5069640;28;20136;-79
2022/01/31 01:34:40;;;;;;;26.40;8.57;;;3.70;94.20;;;;;;5051082;28;20061;-78
2022/01/31 01:37:13;;;;;;;32.92;10.45;;;3.70;94.30;;;;;;5059307;28;20053;-77
2022/01/31 01:39:41;;;;;;;27.67;9.98;;;3.80;94.60;;;;;;5041638;28;20050;-78
2022/01/31 01:42:08;;;;;;;37.35;11.50;;;3.80;94.30;;;;;;5049480;28;20045;-78
2022/01/31 01:44:43;;;;;;;35.05;10.50;;;3.80;94.50;;;;;;5040718;28;20058;-80
2022/01/31 01:47:10;;;;;;;38.92;9.60;;;3.80;94.70;;;;;;5052274;28;20087;-78
2022/01/31 01:49:40;;;;;;;38.78;9.93;;;3.80;94.80;;;;;;5042957;28;20136;-78
2022/01/31 01:52:10;;;;;;;28.13;9.43;;;3.90;95.00;;;;;;5051562;28;20136;-78
2022/01/31 01:54:40;;;;;;;34.75;10.02;;;3.90;95.00;;;;;;5050393;28;20144;-78
2022/01/31 01:57:06;;;;;;;26.75;9.55;;;3.90;95.10;;;;;;5043623;28;20050;-78
2022/01/31 01:59:35;;;;;;;22.33;8.23;;;3.90;95.10;;;;;;5040157;28;20077;-78
2022/01/31 02:02:04;;;;;;;32.25;9.25;;;4.00;95.10;;;;;;5044849;28;20132;-78
2022/01/31 02:04:32;;;;;;;24.80;7.90;;;4.00;95.20;;;;;;5064976;28;20042;-79
2022/01/31 02:06:59;;;;;;;17.83;7.07;;;4.00;95.20;;;;;;5044921;28;20130;-78
2022/01/31 02:09:29;;;;;;;28.10;8.15;;;4.00;95.30;;;;;;5054173;28;20084;-79
2022/01/31 02:11:57;;;;;;;30.50;9.05;;;4.10;95.40;;;;;;5049575;28;20052;-78
2022/01/31 02:14:24;;;;;;;20.73;7.82;;;4.10;95.50;;;;;;5047632;28;20520;-79
2022/01/31 02:16:52;;;;;;;36.08;8.27;;;4.10;95.70;;;;;;5043301;28;20103;-78
2022/01/31 02:19:21;;;;;;;18.80;6.82;;;4.20;95.80;;;;;;5053993;28;20046;-79
2022/01/31 02:21:50;;;;;;;20.65;6.78;;;4.10;95.90;;;;;;5054531;28;20045;-78
2022/01/31 02:24:17;;;;;;;22.15;7.25;;;4.20;95.90;;;;;;5068432;28;20053;-79
2022/01/31 02:26:44;;;;;;;21.77;7.45;;;4.30;95.90;;;;;;5053119;28;20048;-80
2022/01/31 02:29:11;;;;;;;21.23;7.25;;;4.30;95.90;;;;;;5050785;28;20046;-78
2022/01/31 02:31:48;;;;;;;22.20;6.95;;;4.30;95.90;;;;;;5041346;28;20874;-78
2022/01/31 02:34:16;;;;;;;20.02;6.65;;;4.40;95.90;;;;;;5051323;28;20220;-78
2022/01/31 02:36:43;;;;;;;20.27;7.25;;;4.40;96.00;;;;;;5043858;28;20060;-78
2022/01/31 02:39:10;;;;;;;20.15;7.28;;;4.40;96.00;;;;;;5039488;28;20125;-79
2022/01/31 02:41:46;;;;;;;22.70;7.00;;;4.40;96.10;;;;;;5056685;28;20057;-80
2022/01/31 02:44:16;;;;;;;21.17;7.80;;;4.50;96.20;;;;;;5050307;28;20065;-79
2022/01/31 02:46:50;;;;;;;17.52;7.63;;;4.50;96.40;;;;;;5062286;28;20058;-79
2022/01/31 02:49:20;;;;;;;30.92;7.82;;;4.60;96.40;;;;;;5064668;28;20068;-78
2022/01/31 02:51:56;;;;;;;28.20;7.80;;;4.60;96.50;;;;;;5064011;28;20137;-80
2022/01/31 02:54:24;;;;;;;22.98;6.07;;;4.70;96.50;;;;;;5065742;28;20047;-79
2022/01/31 02:56:51;;;;;;;25.90;6.00;;;4.70;96.40;;;;;;5057416;28;20081;-78
2022/01/31 02:59:18;;;;;;;22.48;5.35;;;4.80;96.40;;;;;;5061291;28;20101;-79
2022/01/31 03:01:45;;;;;;;30.40;5.78;;;4.80;96.30;;;;;;5063064;28;20105;-78
2022/01/31 03:04:12;;;;;;;30.45;4.63;;;4.90;96.30;;;;;;5050215;28;20046;-78
2022/01/31 03:06:42;;;;;;;28.85;4.60;;;4.90;96.20;;;;;;5055232;28;20046;-77
2022/01/31 03:09:09;;;;;;;27.52;4.20;;;5.00;96.00;;;;;;5064736;28;20049;-77
2022/01/31 03:11:36;;;;;;;25.50;4.18;;;5.00;95.80;;;;;;5055424;28;20098;-77
2022/01/31 03:14:02;;;;;;;19.83;3.40;;;5.10;95.60;;;;;;5058111;28;20104;-78
2022/01/31 03:16:29;;;;;;;28.75;3.53;;;5.10;95.50;;;;;;5064106;28;20084;-78
2022/01/31 03:18:56;;;;;;;33.08;3.92;;;5.10;95.30;;;;;;5067414;28;20661;-77
2022/01/31 03:21:23;;;;;;;24.23;4.88;;;5.20;95.00;;;;;;5069095;28;20029;-78
2022/01/31 03:23:50;;;;;;;24.55;4.15;;;5.20;94.90;;;;;;5067703;28;20050;-78
2022/01/31 03:26:17;;;;;;;23.38;3.65;;;5.20;94.80;;;;;;5067717;28;20098;-79
2022/01/31 03:28:44;;;;;;;23.13;3.55;;;5.20;94.50;;;;;;5070223;28;20049;-78
2022/01/31 03:31:12;;;;;;;22.27;3.33;;;5.20;94.30;;;;;;5071102;28;20046;-78
2022/01/31 03:33:39;;;;;;;23.08;3.65;;;5.20;94.30;;;;;;5063645;28;20078;-78
2022/01/31 03:36:06;;;;;;;24.23;2.88;;;5.20;94.20;;;;;;5069988;28;20080;-78
2022/01/31 03:38:32;;;;;;;20.95;2.85;;;5.20;93.40;;;;;;5065183;28;20109;-78
2022/01/31 03:40:59;;;;;;;21.50;3.58;;;5.20;93.40;;;;;;5071177;28;20117;-77
2022/01/31 03:43:26;;;;;;;22.15;3.35;;;5.20;93.30;;;;;;5070490;28;20022;-77
2022/01/31 03:45:52;;;;;;;20.42;3.00;;;5.20;93.30;;;;;;5066601;28;20041;-77
2022/01/31 03:48:19;;;;;;;25.38;3.30;;;5.30;92.40;;;;;;5063538;28;20057;-77
2022/01/31 03:50:46;;;;;;;20.65;3.20;;;5.20;92.60;;;;;;5059102;28;20918;-77
2022/01/31 03:53:12;;;;;;;21.52;3.00;;;5.20;92.60;;;;;;5053568;28;20085;-77
2022/01/31 03:55:40;;;;;;;15.27;2.70;;;5.20;92.40;;;;;;5060871;28;20053;-76
2022/01/31 03:58:06;;;;;;;19.45;2.70;;;5.20;92.40;;;;;;5064892;28;20090;-76
2022/01/31 04:00:33;;;;;;;20.65;2.92;;;5.20;92.30;;;;;;5067002;28;20061;-77
2022/01/31 04:03:00;;;;;;;16.30;3.05;;;5.20;92.30;;;;;;5064092;28;20157;-76
2022/01/31 04:05:27;;;;;;;20.90;3.22;;;5.20;91.70;;;;;;5061271;28;20080;-77
2022/01/31 04:07:53;;;;;;;22.05;2.83;;;5.20;91.30;;;;;;5062088;28;20048;-77
2022/01/31 04:10:26;;;;;;;24.92;2.92;;;5.10;91.30;;;;;;5056914;28;20141;-76
2022/01/31 04:12:53;;;;;;;21.42;2.70;;;5.10;90.80;;;;;;5060623;28;20080;-78
2022/01/31 04:15:20;;;;;;;21.75;2.70;;;5.20;89.90;;;;;;5061886;28;20144;-76
2022/01/31 04:17:46;;;;;;;21.10;3.60;;;5.20;89.80;;;;;;5055637;28;20041;-77
2022/01/31 04:20:15;;;;;;;24.38;3.63;;;5.20;90.30;;;;;;5052453;28;20049;-76
2022/01/31 04:22:54;;;;;;;17.02;3.17;;;5.20;90.40;;;;;;5057376;28;20136;-77
2022/01/31 04:25:42;;;;;;;20.90;3.20;;;5.10;90.50;;;;;;5049778;28;20054;-77
2022/01/31 04:28:26;;;;;;;19.00;2.80;;;5.10;90.40;;;;;;5055938;28;20068;-77
2022/01/31 04:30:59;;;;;;;20.95;2.42;;;5.10;89.40;;;;;;5046239;28;20053;-76
2022/01/31 04:33:27;;;;;;;19.95;2.85;;;5.10;89.20;;;;;;5047402;28;20096;-76
2022/01/31 04:35:55;;;;;;;20.80;3.00;;;5.20;88.50;;;;;;5041476;28;20060;-76
2022/01/31 04:38:22;;;;;;;18.73;2.92;;;5.20;87.70;;;;;;5055525;28;20064;-77
2022/01/31 04:40:49;;;;;;;21.85;3.08;;;5.20;87.70;;;;;;5048995;28;20551;-76
2022/01/31 04:43:15;;;;;;;23.35;3.33;;;5.20;88.00;;;;;;5053691;28;20038;-76
2022/01/31 04:45:47;;;;;;;23.70;3.05;;;5.20;88.00;;;;;;5070470;28;20156;-77
2022/01/31 04:48:16;;;;;;;18.92;2.97;;;5.10;87.70;;;;;;5056166;28;20104;-77
2022/01/31 04:50:43;;;;;;;26.77;3.30;;;5.20;86.20;;;;;;5053344;28;20144;-77
2022/01/31 04:53:10;;;;;;;23.90;3.60;;;5.10;87.40;;;;;;5059013;28;20041;-76
2022/01/31 04:55:37;;;;;;;19.02;2.80;;;5.20;85.90;;;;;;5052479;28;20050;-76
2022/01/31 04:58:05;;;;;;;20.35;2.88;;;5.20;87.30;;;;;;5057081;28;20112;-77
2022/01/31 05:00:32;;;;;;;21.17;3.00;;;5.20;87.60;;;;;;5055832;28;20049;-77
2022/01/31 05:02:59;;;;;;;25.23;3.55;;;5.10;86.80;;;;;;5058085;28;20052;-77
2022/01/31 05:05:26;;;;;;;20.55;3.33;;;5.10;86.70;;;;;;5058883;28;20121;-78
2022/01/31 05:07:54;;;;;;;17.10;2.42;;;5.10;86.40;;;;;;5056247;28;20041;-78
2022/01/31 05:10:21;;;;;;;21.58;2.83;;;5.20;87.20;;;;;;5057455;28;20055;-77
2022/01/31 05:12:48;;;;;;;23.85;3.45;;;5.00;87.90;;;;;;5054630;28;20045;-77
2022/01/31 05:15:14;;;;;;;25.02;2.75;;;5.00;88.30;;;;;;5052724;28;20053;-78
2022/01/31 05:17:41;;;;;;;23.67;2.88;;;4.90;89.20;;;;;;5053507;28;20845;-77
2022/01/31 05:20:08;;;;;;;11.20;1.92;;;4.90;89.50;;;;;;5056463;28;20042;-78
2022/01/31 05:22:34;;;;;;;12.38;2.25;;;4.70;88.60;;;;;;5047936;28;20843;-78
2022/01/31 05:25:02;;;;;;;15.20;2.70;;;4.50;89.20;;;;;;5056124;28;20038;-78
2022/01/31 05:27:29;;;;;;;17.48;2.20;;;4.40;90.60;;;;;;5053102;28;20048;-80
2022/01/31 05:29:55;;;;;;;18.23;2.88;;;4.30;90.90;;;;;;5052876;28;20056;-79
2022/01/31 05:32:22;;;;;;;10.60;1.90;;;4.20;91.20;;;;;;5051337;28;20060;-79
2022/01/31 05:34:49;;;;;;;13.45;2.05;;;4.10;92.00;;;;;;5051420;28;20065;-78
2022/01/31 05:37:16;;;;;;;12.02;2.60;;;4.10;91.90;;;;;;5051887;28;20064;-79
2022/01/31 05:39:43;;;;;;;17.45;2.25;;;4.00;92.30;;;;;;5052268;28;20049;-78
2022/01/31 05:42:10;;;;;;;21.55;3.55;;;4.00;92.80;;;;;;5051050;28;20046;-78
2022/01/31 05:44:37;;;;;;;16.75;2.33;;;3.90;93.10;;;;;;5053485;28;20044;-79
2022/01/31 05:47:04;;;;;;;20.20;2.53;;;3.90;93.30;;;;;;5049296;28;20047;-78
2022/01/31 05:49:32;;;;;;;26.15;2.83;;;3.90;93.40;;;;;;5043717;28;20049;-78
2022/01/31 05:52:04;;;;;;;24.27;2.70;;;3.90;93.70;;;;;;5054880;28;20049;-78
2022/01/31 05:54:33;;;;;;;21.27;3.72;;;3.90;94.00;;;;;;5050583;28;20978;-77
2022/01/31 05:56:59;;;;;;;20.73;2.63;;;3.90;94.10;;;;;;5044450;28;20046;-78
2022/01/31 05:59:28;;;;;;;14.45;2.35;;;3.90;94.30;;;;;;5051415;28;20057;-78
2022/01/31 06:01:56;;;;;;;29.25;3.38;;;4.00;94.50;;;;;;5054284;28;20033;-78
2022/01/31 06:04:24;;;;;;;18.90;3.00;;;4.00;94.60;;;;;;5051627;28;20079;-79
2022/01/31 06:06:53;;;;;;;31.38;3.42;;;4.00;94.70;;;;;;5052057;28;20053;-79
2022/01/31 06:09:21;;;;;;;35.63;4.72;;;4.10;94.90;;;;;;5052788;28;20573;-79
2022/01/31 06:11:49;;;;;;;30.52;3.80;;;4.10;94.80;;;;;;5048445;28;20058;-79
2022/01/31 06:14:16;;;;;;;29.90;3.67;;;4.20;94.30;;;;;;5044255;28;20050;-80
2022/01/31 06:16:43;;;;;;;25.77;3.42;;;4.30;93.50;;;;;;5050888;28;20550;-79
2022/01/31 06:19:11;;;;;;;33.63;4.38;;;4.30;93.90;;;;;;5046981;28;20060;-79
2022/01/31 06:21:37;;;;;;;28.25;4.47;;;4.20;94.40;;;;;;5053234;28;20128;-79
2022/01/31 06:24:09;;;;;;;29.15;3.58;;;4.30;94.30;;;;;;5048100;28;20077;-78
2022/01/31 06:26:37;;;;;;;38.30;4.00;;;4.30;94.10;;;;;;5054199;28;20407;-79
2022/01/31 06:29:04;;;;;;;23.27;3.63;;;4.30;93.80;;;;;;5053292;28;20057;-79
2022/01/31 06:31:32;;;;;;;34.85;4.28;;;4.30;94.20;;;;;;5046740;28;20136;-78
2022/01/31 06:34:01;;;;;;;24.65;3.70;;;4.30;94.30;;;;;;5052266;28;20768;-78
2022/01/31 06:36:29;;;;;;;23.95;3.05;;;4.30;94.00;;;;;;5053147;28;20111;-79
2022/01/31 06:38:56;;;;;;;26.85;3.78;;;4.30;93.90;;;;;;5058403;28;20041;-78
2022/01/31 06:41:23;;;;;;;32.45;3.75;;;4.30;93.90;;;;;;5050406;28;20551;-77
2022/01/31 06:43:55;;;;;;;25.52;3.28;;;4.30;93.80;;;;;;5043252;28;20585;-78
2022/01/31 06:46:22;;;;;;;19.20;3.08;;;4.30;93.90;;;;;;5059846;28;20472;-79
2022/01/31 06:48:49;;;;;;;33.80;3.75;;;4.30;93.80;;;;;;5046835;28;20917;-79
2022/01/31 06:51:16;;;;;;;24.58;3.85;;;4.30;93.90;;;;;;5052307;28;20104;-79
2022/01/31 06:53:42;;;;;;;26.88;3.05;;;4.30;94.20;;;;;;5053568;28;20076;-79
2022/01/31 06:56:09;;;;;;;24.85;3.63;;;4.30;94.40;;;;;;5046263;28;20046;-79
2022/01/31 06:58:36;;;;;;;29.25;3.42;;;4.30;94.10;;;;;;5042185;28;20057;-78
2022/01/31 07:01:07;;;;;;;21.08;2.70;;;4.30;94.10;;;;;;5044392;28;21038;-79
2022/01/31 07:03:36;;;;;;;29.50;3.05;;;4.30;94.30;;;;;;5051748;28;20507;-80
2022/01/31 07:06:03;;;;;;;27.27;3.60;;;4.30;94.30;;;;;;5052723;28;20049;-79
2022/01/31 07:08:30;;;;;;;22.63;3.10;;;4.30;94.20;;;;;;5047130;28;20089;-78
2022/01/31 07:10:57;;;;;;;28.05;2.83;;;4.30;94.00;;;;;;5052933;28;20086;-79
2022/01/31 07:13:35;;;;;;;22.20;3.20;;;4.30;93.90;;;;;;5052503;28;20100;-77
2022/01/31 07:16:03;;;;;;;31.17;3.90;;;4.30;93.70;;;;;;5052695;28;20061;-78
2022/01/31 07:18:32;;;;;;;25.25;3.28;;;4.30;93.70;;;;;;5050179;28;20798;-78
2022/01/31 07:20:59;;;;;;;23.58;3.03;;;4.30;93.50;;;;;;5052652;28;20054;-77
2022/01/31 07:23:49;;;;;;;24.52;3.22;;;4.30;93.70;;;;;;5053336;28;20538;-79
2022/01/31 07:26:17;;;;;;;17.80;2.78;;;4.30;93.40;;;;;;5051832;28;20070;-78
2022/01/31 07:28:44;;;;;;;27.50;3.80;;;4.30;93.40;;;;;;5051409;28;20089;-79
2022/01/31 07:31:11;;;;;;;21.58;3.28;;;4.30;93.90;;;;;;5043821;28;20823;-78
2022/01/31 07:33:41;;;;;;;33.00;4.22;;;4.30;94.10;;;;;;5047948;28;20089;-78
2022/01/31 07:36:08;;;;;;;26.17;3.38;;;4.30;94.30;;;;;;5043478;28;20060;-78
2022/01/31 07:38:37;;;;;;;33.88;3.50;;;4.30;93.70;;;;;;5048276;28;20461;-78
2022/01/31 07:41:10;;;;;;;20.95;3.22;;;4.30;93.80;;;;;;5055926;28;20116;-78
2022/01/31 07:43:38;;;;;;;28.13;3.47;;;4.30;94.20;;;;;;5048480;28;20053;-78
2022/01/31 07:46:05;;;;;;;24.23;3.60;;;4.30;94.20;;;;;;5051804;28;20531;-80
2022/01/31 07:48:32;;;;;;;31.13;3.40;;;4.30;94.20;;;;;;5052417;28;20055;-78
2022/01/31 07:50:59;;;;;;;35.78;3.97;;;4.30;94.30;;;;;;5052961;28;21551;-78
2022/01/31 07:53:25;;;;;;;37.20;5.22;;;4.30;94.50;;;;;;5054357;28;20053;-78
2022/01/31 07:55:52;;;;;;;28.10;4.90;;;4.30;94.30;;;;;;5044569;28;20120;-78
2022/01/31 07:58:20;;;;;;;38.60;4.00;;;4.40;94.00;;;;;;5048291;28;20921;-78
2022/01/31 08:00:47;;;;;;;28.70;3.88;;;4.40;93.70;;;;;;5046176;28;20129;-81
2022/01/31 08:03:15;;;;;;;26.33;3.75;;;4.40;93.90;;;;;;5052904;28;20512;-79
2022/01/31 08:05:42;;;;;;;30.58;3.72;;;4.40;93.60;;;;;;5052758;28;20100;-78
2022/01/31 08:08:10;;;;;;;40.40;3.63;;;4.40;93.90;;;;;;5068666;28;20048;-78
2022/01/31 08:10:38;;;;;;;32.42;4.15;;;4.40;93.90;;;;;;5047955;28;20050;-78
2022/01/31 08:13:07;;;;;;;24.92;3.85;;;4.50;93.80;;;;;;5053919;28;20053;-80
2022/01/31 08:15:45;;;;;;;29.63;4.18;;;4.50;93.90;;;;;;5064131;28;20838;-78
2022/01/31 08:18:12;;;;;;;37.10;4.53;;;4.50;93.70;;;;;;5048154;28;20057;-78
2022/01/31 08:20:43;;;;;;;35.85;4.38;;;4.50;93.90;;;;;;5065901;28;20056;-80
2022/01/31 08:23:10;;;;;;;22.67;3.58;;;4.50;94.10;;;;;;5061896;28;20087;-79
2022/01/31 08:25:37;;;;;;;23.98;3.42;;;4.50;93.90;;;;;;5046418;28;20077;-77
2022/01/31 08:28:11;;;;;;;24.08;3.70;;;4.50;93.40;;;;;;5046461;28;20057;-77
2022/01/31 08:30:55;;;;;;;26.77;3.40;;;4.60;93.20;;;;;;5044836;28;20054;-78
2022/01/31 08:33:49;;;;;;;34.53;3.58;;;4.60;92.90;;;;;;5044932;28;20888;-77
2022/01/31 08:36:11;;;;;;;41.90;4.32;;;4.50;93.10;;;;;;5049389;28;20144;-78
2022/01/31 08:38:41;;;;;;;26.50;3.10;;;4.50;93.50;;;;;;5041123;28;20046;-78
2022/01/31 08:41:10;;;;;;;35.03;4.05;;;4.50;93.80;;;;;;5053980;28;20507;-79
2022/01/31 08:43:38;;;;;;;39.35;3.85;;;4.50;93.50;;;;;;5052634;28;20107;-80
2022/01/31 08:46:09;;;;;;;34.03;4.13;;;4.50;93.80;;;;;;5064188;28;20053;-78
2022/01/31 08:48:37;;;;;;;27.67;3.70;;;4.50;93.60;;;;;;5060976;28;20088;-79
2022/01/31 08:51:09;;;;;;;36.63;4.60;;;4.50;93.00;;;;;;5056192;28;20874;-77
2022/01/31 08:53:36;;;;;;;37.05;5.00;;;4.60;92.80;;;;;;5050570;28;20909;-78
2022/01/31 08:56:10;;;;;;;33.65;4.10;;;4.50;93.20;;;;;;5050862;28;20046;-78
2022/01/31 08:58:43;;;;;;;43.60;4.97;;;4.50;92.90;;;;;;5048799;28;20049;-79
2022/01/31 09:01:12;;;;;;;;;;;4.50;93.00;;;;;;5044060;28;20045;-78
2022/01/31 09:03:55;;;;;;;33.10;4.82;;;4.50;93.20;;;;;;5062460;28;19968;-80
2022/01/31 09:06:25;;;;;;;33.72;4.25;;;4.50;93.10;;;;;;5039926;28;20128;-78
2022/01/31 09:08:52;;;;;;;24.48;4.75;;;4.50;92.70;;;;;;5041694;28;20034;-78
2022/01/31 09:11:18;;;;;;;32.63;4.28;;;4.60;92.30;;;;;;5050078;28;20128;-79
2022/01/31 09:13:46;;;;;;;42.90;4.60;;;4.60;92.10;;;;;;5040395;28;20050;-78
2022/01/31 09:16:13;;;;;;;42.58;5.03;;;4.70;91.50;;;;;;5051012;28;20050;-78
2022/01/31 09:18:40;;;;;;;26.67;3.83;;;4.60;91.90;;;;;;5057401;28;20108;-78
2022/01/31 09:21:06;;;;;;;24.45;3.83;;;4.60;91.70;;;;;;5050403;28;20065;-79
2022/01/31 09:23:33;;;;;;;32.85;4.78;;;4.60;91.30;;;;;;5057167;28;20492;-79
2022/01/31 09:26:00;;;;;;;28.88;4.43;;;4.60;91.00;;;;;;5042655;28;20049;-79
2022/01/31 09:28:27;;;;;;;33.60;3.97;;;4.60;91.70;;;;;;5041196;28;20938;-78
2022/01/31 09:30:54;;;;;;;23.38;3.35;;;4.50;92.10;;;;;;5070484;28;20157;-78
2022/01/31 09:33:25;;;;;;;30.92;4.45;;;4.50;91.90;;;;;;5054997;28;20049;-79
2022/01/31 09:35:52;;;;;;;36.95;4.45;;;4.50;92.40;;;;;;5064855;28;20400;-80
2022/01/31 09:38:23;;;;;;;40.72;5.40;;;4.50;91.80;;;;;;5047716;28;20045;-79
2022/01/31 09:40:53;;;;;;;38.03;4.70;;;4.50;92.10;;;;;;5050029;28;20500;-79
2022/01/31 09:46:01;;;;;;;45.38;6.68;;;4.40;92.20;;;;;;5045205;28;20087;-78
2022/01/31 09:48:33;;;;;;;44.03;5.63;;;4.40;92.70;;;;;;5050536;28;20045;-79
2022/01/31 09:51:05;;;;;;;47.38;5.35;;;4.40;92.60;;;;;;5047724;28;20049;-78
2022/01/31 09:53:40;;;;;;;35.92;5.32;;;4.40;93.10;;;;;;5053532;28;20057;-78
2022/01/31 09:56:10;;;;;;;45.05;6.13;;;4.40;93.10;;;;;;5049781;28;20063;-79
2022/01/31 09:58:38;;;;;;;37.28;4.43;;;4.40;92.70;;;;;;5048001;28;20104;-77
2022/01/31 10:01:10;;;;;;;46.30;5.28;;;4.50;92.70;;;;;;5049428;28;20050;-78
2022/01/31 10:03:49;;;;;;;42.42;5.53;;;4.50;92.40;;;;;;5052642;28;20893;-77
2022/01/31 10:06:27;;;;;;;34.72;5.43;;;4.60;92.10;;;;;;5052897;28;20053;-78
2022/01/31 10:09:05;;;;;;;32.78;5.20;;;4.60;91.60;;;;;;5050203;28;20050;-77
2022/01/31 10:11:43;;;;;;;53.38;6.13;;;4.60;91.80;;;;;;5049637;28;20054;-78
2022/01/31 10:17:28;;;;;;;53.20;6.80;;;4.60;92.20;;;;;;5045577;28;20794;-78
2022/01/31 10:20:18;;;;;;;48.55;5.50;;;4.60;91.80;;;;;;5047282;28;20092;-77
2022/01/31 10:22:47;;;;;;;47.35;6.25;;;4.60;91.70;;;;;;5055898;28;20061;-78
2022/01/31 10:25:17;;;;;;;39.72;5.43;;;4.60;91.90;;;;;;5044031;28;20049;-77
2022/01/31 10:28:12;;;;;;;50.13;5.70;;;4.60;91.90;;;;;;5051415;28;20049;-77
2022/01/31 10:30:39;;;;;;;40.33;4.80;;;4.60;91.70;;;;;;5043790;28;20049;-78
2022/01/31 10:33:08;;;;;;;34.80;3.80;;;4.60;91.30;;;;;;5043420;28;20104;-77
2022/01/31 10:35:39;;;;;;;47.90;5.63;;;4.70;91.10;;;;;;5051671;28;20050;-79
2022/01/31 10:38:11;;;;;;;42.13;5.28;;;4.70;91.80;;;;;;5039326;28;20061;-78
2022/01/31 10:51:58;;;;;;;40.00;4.85;;;4.70;91.50;;;;;;5044770;28;20877;-80
2022/01/31 10:57:27;;;;;;;43.72;4.78;;;4.70;91.40;;;;;;5048372;28;20811;-80
2022/01/31 11:00:00;;;;;;;33.08;4.15;;;4.80;91.50;;;;;;5039442;28;20076;-78
2022/01/31 11:02:27;;;;;;;46.45;4.90;;;4.70;91.90;;;;;;5052238;28;20053;-78
2022/01/31 11:04:57;;;;;;;38.28;5.53;;;4.70;92.70;;;;;;5041536;28;20084;-78
2022/01/31 11:07:26;;;;;;;25.75;4.20;;;4.70;93.30;;;;;;5052438;28;20072;-78
2022/01/31 11:09:54;;;;;;;41.80;5.35;;;4.70;92.50;;;;;;5051670;28;20045;-80
2022/01/31 11:12:24;;;;;;;32.72;3.90;;;4.70;92.60;;;;;;5046096;28;20132;-80
2022/01/31 11:14:53;;;;;;;34.38;5.88;;;4.70;92.40;;;;;;5045834;28;20756;-78
2022/01/31 11:17:24;;;;;;;34.10;4.38;;;4.70;92.70;;;;;;5046172;28;20053;-77
2022/01/31 11:19:57;;;;;;;40.72;5.07;;;4.80;93.10;;;;;;5052065;28;20060;-78
2022/01/31 11:25:29;;;;;;;44.28;5.70;;;4.70;93.70;;;;;;5033436;28;20085;-78
2022/01/31 11:28:02;;;;;;;38.22;5.55;;;4.70;93.80;;;;;;5033777;28;20057;-78
2022/01/31 11:30:31;;;;;;;45.13;5.57;;;4.70;93.80;;;;;;5051799;28;20061;-79
2022/01/31 11:32:58;;;;;;;42.10;5.22;;;4.70;93.60;;;;;;5051969;28;20128;-78
2022/01/31 11:35:24;;;;;;;41.58;4.60;;;4.70;93.50;;;;;;5068931;28;20595;-78
2022/01/31 11:37:52;;;;;;;35.80;5.22;;;4.70;93.50;;;;;;5053313;28;20049;-80
2022/01/31 11:40:21;;;;;;;32.95;4.43;;;4.70;93.80;;;;;;5050528;28;20120;-79
2022/01/31 11:42:49;;;;;;;43.20;5.90;;;4.70;94.00;;;;;;5053045;28;20080;-78
2022/01/31 11:45:26;;;;;;;41.38;5.45;;;4.70;94.00;;;;;;5050057;28;20050;-77
2022/01/31 11:47:55;;;;;;;35.90;4.85;;;4.80;93.50;;;;;;5059955;28;20081;-78
2022/01/31 11:50:24;;;;;;;36.75;4.63;;;4.70;93.50;;;;;;5051612;28;20455;-78
2022/01/31 11:52:55;;;;;;;37.28;4.93;;;4.80;93.90;;;;;;5045458;28;20037;-78
2022/01/31 11:55:35;;;;;;;39.95;5.00;;;4.80;94.20;;;;;;5045307;28;20053;-77
2022/01/31 11:58:09;;;;;;;43.83;4.82;;;4.80;94.40;;;;;;5052347;28;20520;-78
2022/01/31 12:00:40;;;;;;;46.60;4.75;;;4.80;94.30;;;;;;5052055;28;20057;-78
2022/01/31 12:03:09;;;;;;;43.25;5.97;;;4.80;94.20;;;;;;5048993;28;20080;-78
2022/01/31 12:05:37;;;;;;;50.03;5.97;;;4.80;94.40;;;;;;5043798;28;20053;-78
2022/01/31 12:08:19;;;;;;;46.80;5.65;;;4.80;94.90;;;;;;5040538;28;20503;-79
2022/01/31 12:11:16;;;;;;;44.13;5.82;;;4.90;94.80;;;;;;5040592;28;20053;-78
2022/01/31 12:13:55;;;;;;;42.75;5.63;;;4.90;94.40;;;;;;5047105;28;20516;-79
2022/01/31 12:22:00;;;;;;;38.97;5.20;;;4.80;94.10;;;;;;5054507;28;20088;-79
2022/01/31 12:24:29;;;;;;;58.90;7.40;;;4.90;93.90;;;;;;5058170;28;20119;-78
2022/01/31 12:27:05;;;;;;;47.33;5.82;;;4.90;93.90;;;;;;5056754;28;20038;-79
2022/01/31 12:29:35;;;;;;;48.38;5.72;;;4.90;93.70;;;;;;5043062;28;20242;-77
2022/01/31 12:32:15;;;;;;;50.10;5.47;;;4.90;94.00;;;;;;5044847;28;20046;-78
2022/01/31 12:35:05;;;;;;;49.40;6.22;;;5.00;93.90;;;;;;5047280;28;20144;-77
2022/01/31 12:37:48;;;;;;;48.08;6.10;;;5.00;94.10;;;;;;5050315;28;20077;-78
2022/01/31 12:40:18;;;;;;;25.63;4.47;;;5.00;93.80;;;;;;5051962;28;20139;-76
2022/01/31 12:45:27;;;;;;;38.88;4.32;;;5.00;93.50;;;;;;5043122;28;20135;-78
2022/01/31 12:50:40;;;;;;;57.00;5.57;;;5.00;92.70;;;;;;5053218;28;20045;-77
2022/01/31 12:53:43;;;;;;;54.45;6.30;;;5.00;92.90;;;;;;5043006;28;21033;-78
2022/01/31 12:56:11;;;;;;;44.63;6.60;;;5.00;92.80;;;;;;5043097;28;20038;-78
2022/01/31 12:58:48;;;;;;;64.15;7.30;;;5.00;93.40;;;;;;5053022;28;20911;-77
2022/01/31 13:01:19;;;;;;;27.67;5.80;;;5.00;93.20;;;;;;5049986;28;20054;-80
2022/01/31 13:03:57;;;;;;;57.40;6.15;;;5.00;92.80;;;;;;5046076;28;20045;-78
2022/01/31 13:06:29;;;;;;;44.13;5.75;;;5.00;93.00;;;;;;5035951;28;20081;-77
2022/01/31 13:09:01;;;;;;;45.15;6.28;;;5.00;92.80;;;;;;5030220;28;20049;-78
2022/01/31 13:11:30;;;;;;;46.05;5.88;;;5.00;92.30;;;;;;5045121;28;20058;-77
2022/01/31 13:14:03;;;;;;;37.40;5.70;;;5.00;93.10;;;;;;5050438;28;20041;-77
2022/01/31 13:17:01;;;;;;;41.85;5.90;;;5.00;92.70;;;;;;5050429;28;20077;-79
2022/01/31 13:19:34;;;;;;;53.17;5.93;;;5.00;92.70;;;;;;5040156;28;20132;-77
2022/01/31 13:22:06;;;;;;;54.28;7.25;;;5.00;93.10;;;;;;5038437;28;20065;-79
2022/01/31 13:24:42;;;;;;;45.47;5.10;;;5.00;93.40;;;;;;5047217;28;20060;-77
2022/01/31 13:27:15;;;;;;;37.13;5.35;;;5.00;93.00;;;;;;5058179;28;20062;-78
2022/01/31 13:30:05;;;;;;;53.73;6.00;;;5.00;92.80;;;;;;5048146;28;20058;-78
2022/01/31 13:32:34;;;;;;;43.08;5.28;;;5.00;93.30;;;;;;5049728;28;20053;-78
2022/01/31 13:35:05;;;;;;;50.72;6.20;;;5.00;93.40;;;;;;5066723;28;20060;-79
2022/01/31 13:37:32;;;;;;;48.60;7.03;;;4.90;93.40;;;;;;5044955;28;20053;-79